createdAt,value
2018-07-17T00:02:27.649Z,5.23
2018-07-17T00:04:56.049Z,5.80
2018-07-17T00:07:24.412Z,6.77
2018-07-17T00:09:52.797Z,5.00
2018-07-17T00:12:20.879Z,6.50
2018-07-17T00:14:49.253Z,6.13
2018-07-17T00:17:17.617Z,5.90
2018-07-17T00:19:45.720Z,4.97
2018-07-17T00:22:14.093Z,5.90
2018-07-17T00:24:42.689Z,5.57
2018-07-17T00:27:11.042Z,7.03
2018-07-17T00:29:39.421Z,4.97
2018-07-17T00:32:07.595Z,4.73
2018-07-17T00:34:35.999Z,5.20
2018-07-17T00:37:04.375Z,7.47
2018-07-17T00:39:32.728Z,4.87
2018-07-17T00:42:01.112Z,6.83
2018-07-17T00:44:29.520Z,5.67
2018-07-17T00:46:57.868Z,5.63
2018-07-17T00:49:26.240Z,5.97
2018-07-17T00:51:54.600Z,5.57
2018-07-17T00:54:22.965Z,6.20
2018-07-17T00:56:51.344Z,7.80
2018-07-17T00:59:19.717Z,5.90
2018-07-17T01:01:53.350Z,5.53
2018-07-17T01:04:27.088Z,4.73
2018-07-17T01:07:00.878Z,5.10
2018-07-17T01:09:34.492Z,6.20
2018-07-17T01:12:08.383Z,5.20
2018-07-17T01:15:07.509Z,5.20
2018-07-17T01:17:36.436Z,6.53
2018-07-17T01:20:04.987Z,5.83
2018-07-17T01:22:33.049Z,6.63
2018-07-17T01:25:01.391Z,6.83
2018-07-17T01:27:29.799Z,5.67
2018-07-17T01:29:58.144Z,8.20
2018-07-17T01:32:26.472Z,6.03
2018-07-17T01:34:54.550Z,6.53
2018-07-17T01:37:22.883Z,6.67
2018-07-17T01:39:51.363Z,5.27
2018-07-17T01:42:19.797Z,11.17
2018-07-17T01:44:48.150Z,5.27
2018-07-17T01:47:16.479Z,6.60
2018-07-17T01:49:44.918Z,5.60
2018-07-17T01:52:13.232Z,7.60
2018-07-17T01:54:41.570Z,5.80
2018-07-17T01:57:09.913Z,7.13
2018-07-17T01:59:38.248Z,5.33
2018-07-17T02:02:06.588Z,5.23
2018-07-17T02:04:34.932Z,6.57
2018-07-17T02:07:03.286Z,7.53
2018-07-17T02:09:31.635Z,6.13
2018-07-17T02:11:59.965Z,6.00
2018-07-17T02:14:28.292Z,6.63
2018-07-17T02:16:56.661Z,5.10
2018-07-17T02:19:24.988Z,5.73
2018-07-17T02:21:53.336Z,6.73
2018-07-17T02:24:21.664Z,5.37
2018-07-17T02:26:50.008Z,6.03
2018-07-17T02:29:18.052Z,5.73
2018-07-17T02:31:46.431Z,6.60
2018-07-17T02:34:14.766Z,5.87
2018-07-17T02:36:43.144Z,5.63
2018-07-17T02:39:11.477Z,6.00
2018-07-17T02:41:39.824Z,6.23
2018-07-17T02:44:08.143Z,9.00
2018-07-17T02:46:36.492Z,7.83
2018-07-17T02:49:04.823Z,5.93
2018-07-17T02:51:33.199Z,6.00
2018-07-17T02:54:01.528Z,5.90
2018-07-17T02:56:29.970Z,5.50
2018-07-17T02:58:58.312Z,5.97
2018-07-17T03:01:26.661Z,7.50
2018-07-17T03:03:54.993Z,5.97
2018-07-17T03:06:23.365Z,5.57
2018-07-17T03:08:51.426Z,6.67
2018-07-17T03:11:19.518Z,6.57
2018-07-17T03:13:47.579Z,7.43
2018-07-17T03:16:15.663Z,5.33
2018-07-17T03:18:43.720Z,6.50
2018-07-17T03:21:12.083Z,5.93
2018-07-17T03:23:40.411Z,5.70
2018-07-17T03:26:08.824Z,5.73
2018-07-17T03:28:37.167Z,6.10
2018-07-17T03:31:05.519Z,6.43
2018-07-17T03:33:33.873Z,7.40
2018-07-17T03:36:02.236Z,5.40
2018-07-17T03:38:30.586Z,7.67
2018-07-17T03:40:59.023Z,6.93
2018-07-17T03:43:27.351Z,6.00
2018-07-17T03:45:55.708Z,6.83
2018-07-17T03:48:23.782Z,10.67
2018-07-17T03:50:52.138Z,7.33
2018-07-17T03:53:20.479Z,7.13
2018-07-17T03:55:48.849Z,7.17
2018-07-17T03:58:17.322Z,5.70
2018-07-17T04:00:45.677Z,6.77
2018-07-17T04:03:13.734Z,5.63
2018-07-17T04:05:42.045Z,7.00
2018-07-17T04:08:10.386Z,7.13
2018-07-17T04:10:38.708Z,6.37
2018-07-17T04:13:07.049Z,7.20
2018-07-17T04:15:35.375Z,6.30
2018-07-17T04:18:03.732Z,7.20
2018-07-17T04:20:32.084Z,7.13
2018-07-17T04:23:00.443Z,9.33
2018-07-17T04:25:28.784Z,11.70
2018-07-17T04:27:57.127Z,9.30
2018-07-17T04:30:25.468Z,8.47
2018-07-17T04:32:53.816Z,7.00
2018-07-17T04:35:22.135Z,8.20
2018-07-17T04:37:50.480Z,8.40
2018-07-17T04:40:18.800Z,7.70
2018-07-17T04:42:47.155Z,7.30
2018-07-17T04:45:15.479Z,8.80
2018-07-17T04:47:43.827Z,9.27
2018-07-17T04:50:12.140Z,10.43
2018-07-17T04:52:40.488Z,8.23
2018-07-17T04:55:08.831Z,8.97
2018-07-17T04:57:37.220Z,10.87
2018-07-17T05:00:05.582Z,7.43
2018-07-17T05:02:33.935Z,8.03
2018-07-17T05:05:02.264Z,7.40
2018-07-17T05:07:30.633Z,12.60
2018-07-17T05:09:58.952Z,8.20
2018-07-17T05:12:27.315Z,10.47
2018-07-17T05:14:55.640Z,11.93
2018-07-17T05:17:23.737Z,10.17
2018-07-17T05:19:52.072Z,8.83
2018-07-17T05:22:20.432Z,11.77
2018-07-17T05:24:48.755Z,9.30
2018-07-17T05:27:16.848Z,10.23
2018-07-17T05:29:45.171Z,8.93
2018-07-17T05:32:13.573Z,12.33
2018-07-17T05:34:41.651Z,11.23
2018-07-17T05:37:09.740Z,12.27
2018-07-17T05:39:38.079Z,11.90
2018-07-17T05:42:06.451Z,10.63
2018-07-17T05:44:34.793Z,11.33
2018-07-17T05:47:03.171Z,16.67
2018-07-17T05:49:31.512Z,11.30
2018-07-17T05:51:59.933Z,11.37
2018-07-17T05:54:28.255Z,11.60
2018-07-17T05:56:56.629Z,13.53
2018-07-17T05:59:25.168Z,12.63
2018-07-17T06:01:53.624Z,13.53
2018-07-17T06:04:21.710Z,13.63
2018-07-17T06:06:49.995Z,11.93
2018-07-17T06:09:18.358Z,12.13
2018-07-17T06:11:46.421Z,14.47
2018-07-17T06:14:14.787Z,13.17
2018-07-17T06:16:43.132Z,15.83
2018-07-17T06:19:11.495Z,11.30
2018-07-17T06:21:39.846Z,11.67
2018-07-17T06:24:07.951Z,12.40
2018-07-17T06:26:36.278Z,11.57
2018-07-17T06:29:04.662Z,11.93
2018-07-17T06:31:32.989Z,11.40
2018-07-17T06:34:01.347Z,12.73
2018-07-17T06:36:29.691Z,14.03
2018-07-17T06:38:58.061Z,11.03
2018-07-17T06:41:26.432Z,15.37
2018-07-17T06:43:54.790Z,13.63
2018-07-17T06:46:23.120Z,11.23
2018-07-17T06:48:51.474Z,14.50
2018-07-17T06:51:19.793Z,15.00
2018-07-17T06:53:48.151Z,14.07
2018-07-17T06:56:16.504Z,11.87
2018-07-17T06:58:44.855Z,12.00
2018-07-17T07:01:13.175Z,11.77
2018-07-17T07:03:41.523Z,11.10
2018-07-17T07:06:09.847Z,10.63
2018-07-17T07:08:38.196Z,18.27
2018-07-17T07:11:06.537Z,12.17
2018-07-17T07:13:34.880Z,12.90
2018-07-17T07:16:03.204Z,13.10
2018-07-17T07:18:31.575Z,14.03
2018-07-17T07:20:59.903Z,10.13
2018-07-17T07:23:28.285Z,12.40
2018-07-17T07:25:56.592Z,12.20
2018-07-17T07:28:24.679Z,11.50
2018-07-17T07:30:53.083Z,10.10
2018-07-17T07:33:21.653Z,13.33
2018-07-17T07:35:49.971Z,9.10
2018-07-17T07:38:18.320Z,14.87
2018-07-17T07:40:46.639Z,11.50
2018-07-17T07:43:15.009Z,11.23
2018-07-17T07:45:43.324Z,12.17
2018-07-17T07:48:11.381Z,10.80
2018-07-17T07:50:39.733Z,11.30
2018-07-17T07:53:08.097Z,11.03
2018-07-17T07:55:36.512Z,9.70
2018-07-17T07:58:04.864Z,12.80
2018-07-17T08:00:33.226Z,13.23
2018-07-17T08:03:01.574Z,9.43
2018-07-17T08:05:29.895Z,8.13
2018-07-17T08:07:58.223Z,7.83
2018-07-17T08:10:26.582Z,8.87
2018-07-17T08:12:54.943Z,7.37
2018-07-17T08:15:23.291Z,7.07
2018-07-17T08:17:51.650Z,6.53
2018-07-17T08:20:19.751Z,7.73
2018-07-17T08:22:48.126Z,7.60
2018-07-17T08:25:16.555Z,8.00
2018-07-17T08:27:44.889Z,9.57
2018-07-17T08:30:13.281Z,5.70
2018-07-17T08:32:41.611Z,6.27
2018-07-17T08:35:09.992Z,6.60
2018-07-17T08:37:38.314Z,5.17
2018-07-17T08:40:06.725Z,6.30
2018-07-17T08:42:35.060Z,4.73
2018-07-17T08:45:03.488Z,6.43
2018-07-17T08:47:31.828Z,5.13
2018-07-17T08:50:00.211Z,4.77
2018-07-17T08:52:28.546Z,4.30
2018-07-17T08:54:56.904Z,5.67
2018-07-17T08:57:24.987Z,4.90
2018-07-17T08:59:53.339Z,7.43
2018-07-17T09:02:21.663Z,5.07
2018-07-17T09:04:49.775Z,5.77
2018-07-17T09:07:18.133Z,5.83
2018-07-17T09:09:46.502Z,4.63
2018-07-17T09:12:14.891Z,6.57
2018-07-17T09:14:43.250Z,5.00
2018-07-17T09:17:11.394Z,4.20
2018-07-17T09:19:39.758Z,6.13
2018-07-17T09:22:08.143Z,5.10
2018-07-17T09:24:36.610Z,4.70
2018-07-17T09:27:04.969Z,4.03
2018-07-17T09:29:33.336Z,3.37
2018-07-17T09:32:01.442Z,5.33
2018-07-17T09:34:29.824Z,6.12
2018-07-17T09:36:58.180Z,5.15
2018-07-17T09:39:26.560Z,3.30
2018-07-17T09:41:55.072Z,5.20
2018-07-17T09:44:27.278Z,3.60
2018-07-17T09:46:55.914Z,3.75
2018-07-17T09:49:24.259Z,3.80
2018-07-17T09:51:52.769Z,3.50
2018-07-17T09:54:21.241Z,4.47
2018-07-17T09:56:49.628Z,3.80
2018-07-17T09:59:17.960Z,4.45
2018-07-17T10:01:51.695Z,4.87
2018-07-17T10:04:19.758Z,4.00
2018-07-17T10:06:47.855Z,12.63
2018-07-17T10:09:16.199Z,2.45
2018-07-17T10:11:44.590Z,2.70
2018-07-17T10:14:12.911Z,2.75
2018-07-17T10:16:41.290Z,2.70
2018-07-17T10:19:09.947Z,3.30
2018-07-17T10:21:39.351Z,3.98
2018-07-17T10:24:07.691Z,5.35
2018-07-17T10:26:36.088Z,3.33
2018-07-17T10:29:04.508Z,3.22
2018-07-17T10:31:32.877Z,4.17
2018-07-17T10:34:01.235Z,3.02
2018-07-17T10:36:29.601Z,4.50
2018-07-17T10:38:57.954Z,3.83
2018-07-17T10:41:26.340Z,3.37
2018-07-17T10:43:54.696Z,3.20
2018-07-17T10:46:23.142Z,4.17
2018-07-17T10:48:51.483Z,3.35
2018-07-17T10:51:20.943Z,3.55
2018-07-17T10:53:49.294Z,3.17
2018-07-17T10:56:17.663Z,2.45
2018-07-17T10:58:46.005Z,5.65
2018-07-17T11:01:14.371Z,2.92
2018-07-17T11:03:42.720Z,3.20
2018-07-17T11:06:10.803Z,2.90
2018-07-17T11:08:38.878Z,5.85
2018-07-17T11:11:08.034Z,6.00
2018-07-17T11:13:36.431Z,2.98
2018-07-17T11:16:04.969Z,7.97
2018-07-17T11:18:33.291Z,3.65
2018-07-17T11:21:01.657Z,5.10
2018-07-17T11:23:29.993Z,4.00
2018-07-17T11:25:58.352Z,3.30
2018-07-17T11:28:26.416Z,3.25
2018-07-17T11:30:54.900Z,2.75
2018-07-17T11:33:22.942Z,3.27
2018-07-17T11:35:51.320Z,3.42
2018-07-17T11:38:19.643Z,4.47
2018-07-17T11:40:48.027Z,3.00
2018-07-17T11:43:16.393Z,4.60
2018-07-17T11:45:44.455Z,3.90
2018-07-17T11:48:12.907Z,3.58
2018-07-17T11:50:41.347Z,3.27
2018-07-17T11:53:09.718Z,3.40
2018-07-17T11:55:38.087Z,15.80
2018-07-17T11:58:06.203Z,3.40
2018-07-17T12:00:34.532Z,3.95
2018-07-17T12:03:02.687Z,3.22
2018-07-17T12:05:30.994Z,5.17
2018-07-17T12:07:59.363Z,2.98
2018-07-17T12:10:27.423Z,3.10
2018-07-17T12:12:55.834Z,3.00
2018-07-17T12:15:24.124Z,3.27
2018-07-17T12:17:52.493Z,3.35
2018-07-17T12:20:21.004Z,3.45
2018-07-17T12:22:49.241Z,2.83
2018-07-17T12:25:17.312Z,4.97
2018-07-17T12:27:45.404Z,3.47
2018-07-17T12:30:13.744Z,3.80
2018-07-17T12:32:42.108Z,2.90
2018-07-17T12:35:10.494Z,3.20
2018-07-17T12:37:38.858Z,3.40
2018-07-17T12:40:07.243Z,4.33
2018-07-17T12:42:35.640Z,2.90
2018-07-17T12:45:04.054Z,2.83
2018-07-17T12:47:32.524Z,2.80
2018-07-17T12:50:01.027Z,2.87
2018-07-17T12:52:29.264Z,2.77
2018-07-17T12:54:57.609Z,3.40
2018-07-17T12:57:26.003Z,3.15
2018-07-17T12:59:54.365Z,2.77
2018-07-17T13:02:22.724Z,3.22
2018-07-17T13:04:51.069Z,7.22
2018-07-17T13:07:19.448Z,3.35
2018-07-17T13:09:47.780Z,3.92
2018-07-17T13:12:16.148Z,3.85
2018-07-17T13:14:44.494Z,4.15
2018-07-17T13:17:12.892Z,5.40
2018-07-17T13:19:41.781Z,3.83
2018-07-17T13:22:10.148Z,4.12
2018-07-17T13:24:38.207Z,3.75
2018-07-17T13:27:06.667Z,3.20
2018-07-17T13:29:34.999Z,3.60
2018-07-17T13:32:03.403Z,3.33
2018-07-17T13:34:31.757Z,3.42
2018-07-17T13:36:59.908Z,3.37
2018-07-17T13:39:28.296Z,3.83
2018-07-17T13:41:56.645Z,3.10
2018-07-17T13:44:25.016Z,5.33
2018-07-17T13:46:53.364Z,3.72
2018-07-17T13:49:21.744Z,3.52
2018-07-17T13:51:50.094Z,3.37
2018-07-17T13:54:18.183Z,3.65
2018-07-17T13:56:46.395Z,5.75
2018-07-17T13:59:14.757Z,3.92
2018-07-17T14:01:43.084Z,3.33
2018-07-17T14:04:11.456Z,3.12
2018-07-17T14:06:39.792Z,4.03
2018-07-17T14:09:09.191Z,3.40
2018-07-17T14:11:38.380Z,3.37
2018-07-17T14:14:06.757Z,3.65
2018-07-17T14:16:35.083Z,4.90
2018-07-17T14:19:03.432Z,5.70
2018-07-17T14:21:31.785Z,4.97
2018-07-17T14:24:00.163Z,3.90
2018-07-17T14:26:28.483Z,3.72
2018-07-17T14:28:56.830Z,4.25
2018-07-17T14:31:25.156Z,4.75
2018-07-17T14:33:53.540Z,3.95
2018-07-17T14:36:21.859Z,5.80
2018-07-17T14:38:50.215Z,3.85
2018-07-17T14:41:18.551Z,5.92
2018-07-17T14:43:46.916Z,5.47
2018-07-17T14:46:15.252Z,6.78
2018-07-17T14:48:43.623Z,4.00
2018-07-17T14:51:13.563Z,18.05
2018-07-17T14:53:41.945Z,11.43
2018-07-17T14:56:10.453Z,9.00
2018-07-17T14:58:38.829Z,14.40
2018-07-17T15:01:07.161Z,5.55
2018-07-17T15:03:35.900Z,8.35
2018-07-17T15:06:04.409Z,5.92
2018-07-17T15:08:32.782Z,4.20
2018-07-17T15:11:01.115Z,4.40
2018-07-17T15:13:29.468Z,4.12
2018-07-17T15:15:57.834Z,4.80
2018-07-17T15:18:26.195Z,4.42
2018-07-17T15:20:54.540Z,4.22
2018-07-17T15:23:23.054Z,3.80
2018-07-17T15:25:51.375Z,3.65
2018-07-17T15:28:19.741Z,4.08
2018-07-17T15:30:48.063Z,4.00
2018-07-17T15:33:16.128Z,4.50
2018-07-17T15:35:44.475Z,3.72
2018-07-17T15:38:12.826Z,3.90
2018-07-17T15:40:41.204Z,6.92
2018-07-17T15:43:09.543Z,5.87
2018-07-17T15:45:37.939Z,4.33
2018-07-17T15:48:05.994Z,4.05
2018-07-17T15:50:34.339Z,4.28
2018-07-17T15:53:02.765Z,3.98
2018-07-17T15:55:30.870Z,3.77
2018-07-17T15:57:59.212Z,3.83
2018-07-17T16:00:27.551Z,6.30
2018-07-17T16:02:55.879Z,3.65
2018-07-17T16:05:23.954Z,4.35
2018-07-17T16:07:52.312Z,3.90
2018-07-17T16:10:20.680Z,3.87
2018-07-17T16:12:49.010Z,4.03
2018-07-17T16:15:17.379Z,4.12
2018-07-17T16:17:45.705Z,4.20
2018-07-17T16:20:14.104Z,3.52
2018-07-17T16:22:42.424Z,3.95
2018-07-17T16:25:10.796Z,5.30
2018-07-17T16:27:39.163Z,5.95
2018-07-17T16:30:07.579Z,4.58
2018-07-17T16:32:35.931Z,4.10
2018-07-17T16:35:04.017Z,4.05
2018-07-17T16:37:32.351Z,4.80
2018-07-17T16:40:00.712Z,3.60
2018-07-17T16:42:29.056Z,3.95
2018-07-17T16:44:57.415Z,3.95
2018-07-17T16:47:25.755Z,5.10
2018-07-17T16:49:54.188Z,3.58
2018-07-17T16:52:22.513Z,5.67
2018-07-17T16:54:50.870Z,6.15
2018-07-17T16:57:19.220Z,4.10
2018-07-17T16:59:47.583Z,3.95
2018-07-17T17:02:15.900Z,8.23
2018-07-17T17:04:44.270Z,3.87
2018-07-17T17:07:12.584Z,4.90
2018-07-17T17:09:40.927Z,3.75
2018-07-17T17:12:09.244Z,5.72
2018-07-17T17:14:37.595Z,3.98
2018-07-17T17:17:06.345Z,4.08
2018-07-17T17:19:34.747Z,5.17
2018-07-17T17:22:03.062Z,4.22
2018-07-17T17:24:31.401Z,6.20
2018-07-17T17:26:59.782Z,5.28
2018-07-17T17:29:28.171Z,6.42
2018-07-17T17:31:56.532Z,3.90
2018-07-17T17:34:24.582Z,4.22
2018-07-17T17:36:52.944Z,4.03
2018-07-17T17:39:21.327Z,3.87
2018-07-17T17:41:49.640Z,5.87
2018-07-17T17:44:17.686Z,4.42
2018-07-17T17:46:46.039Z,4.87
2018-07-17T17:49:14.355Z,6.67
2018-07-17T17:51:42.753Z,6.08
2018-07-17T17:54:11.112Z,4.10
2018-07-17T17:56:39.486Z,5.05
2018-07-17T17:59:07.809Z,3.62
2018-07-17T18:01:36.168Z,4.47
2018-07-17T18:04:04.235Z,3.87
2018-07-17T18:06:32.575Z,3.40
2018-07-17T18:09:00.888Z,3.60
2018-07-17T18:11:29.238Z,3.30
2018-07-17T18:13:57.578Z,3.55
2018-07-17T18:16:25.944Z,3.50
2018-07-17T18:18:53.999Z,5.80
2018-07-17T18:21:22.348Z,4.12
2018-07-17T18:23:50.679Z,8.95
2018-07-17T18:26:19.042Z,5.08
2018-07-17T18:28:47.378Z,4.28
2018-07-17T18:31:15.799Z,5.40
2018-07-17T18:33:43.970Z,6.05
2018-07-17T18:36:12.332Z,8.55
2018-07-17T18:38:40.678Z,5.10
2018-07-17T18:41:09.084Z,5.00
2018-07-17T18:43:37.392Z,7.17
2018-07-17T18:46:05.536Z,5.62
2018-07-17T18:48:33.870Z,5.37
2018-07-17T18:51:02.239Z,6.50
2018-07-17T18:53:30.842Z,8.95
2018-07-17T18:55:59.222Z,5.33
2018-07-17T18:58:27.556Z,5.47
2018-07-17T19:00:55.923Z,5.97
2018-07-17T19:03:24.301Z,7.80
2018-07-17T19:05:52.711Z,7.67
2018-07-17T19:08:21.021Z,6.78
2018-07-17T19:10:49.372Z,5.55
2018-07-17T19:13:17.591Z,5.70
2018-07-17T19:15:45.956Z,5.30
2018-07-17T19:18:14.302Z,5.30
2018-07-17T19:20:42.667Z,5.15
2018-07-17T19:23:11.024Z,4.75
2018-07-17T19:25:39.356Z,4.78
2018-07-17T19:28:07.712Z,4.70
2018-07-17T19:30:36.033Z,5.30
2018-07-17T19:33:04.398Z,5.20
2018-07-17T19:35:32.765Z,5.42
2018-07-17T19:38:01.107Z,6.58
2018-07-17T19:40:29.414Z,6.42
2018-07-17T19:42:57.765Z,5.10
2018-07-17T19:45:26.097Z,8.65
2018-07-17T19:47:54.552Z,6.12
2018-07-17T19:50:22.864Z,5.53
2018-07-17T19:52:51.320Z,4.80
2018-07-17T19:55:19.385Z,5.20
2018-07-17T19:57:47.484Z,5.47
2018-07-17T20:00:15.820Z,6.10
2018-07-17T20:02:44.175Z,6.05
2018-07-17T20:05:12.528Z,4.90
2018-07-17T20:07:40.908Z,5.70
2018-07-17T20:10:09.264Z,5.35
2018-07-17T20:12:37.351Z,8.30
2018-07-17T20:15:05.687Z,5.58
2018-07-17T20:17:34.039Z,7.60
2018-07-17T20:20:02.404Z,6.17
2018-07-17T20:22:30.755Z,6.55
2018-07-17T20:24:58.875Z,6.50
2018-07-17T20:27:27.237Z,6.25
2018-07-17T20:29:55.571Z,7.75
2018-07-17T20:32:23.933Z,6.30
2018-07-17T20:34:52.271Z,6.85
2018-07-17T20:37:20.648Z,6.70
2018-07-17T20:39:48.992Z,6.87
2018-07-17T20:42:17.084Z,6.03
2018-07-17T20:44:45.134Z,8.08
2018-07-17T20:47:13.495Z,6.22
2018-07-17T20:49:41.875Z,8.23
2018-07-17T20:52:10.267Z,7.05
2018-07-17T20:54:38.596Z,6.65
2018-07-17T20:57:07.046Z,7.87
2018-07-17T20:59:35.098Z,5.62
2018-07-17T21:02:03.482Z,6.33
2018-07-17T21:04:37.352Z,9.83
2018-07-17T21:07:05.745Z,7.23
2018-07-17T21:09:34.080Z,8.13
2018-07-17T21:12:02.427Z,7.70
2018-07-17T21:14:30.770Z,6.95
2018-07-17T21:16:59.087Z,5.67
2018-07-17T21:19:27.442Z,6.83
2018-07-17T21:21:55.783Z,7.30
2018-07-17T21:24:24.143Z,8.13
2018-07-17T21:26:52.210Z,7.23
2018-07-17T21:29:20.579Z,7.57
2018-07-17T21:31:48.929Z,7.40
2018-07-17T21:34:17.376Z,6.53
2018-07-17T21:36:45.710Z,6.70
2018-07-17T21:39:16.394Z,7.37
2018-07-17T21:41:44.784Z,7.30
2018-07-17T21:44:13.139Z,10.27
2018-07-17T21:46:42.523Z,7.53
2018-07-17T21:49:10.960Z,7.93
2018-07-17T21:51:39.302Z,7.60
2018-07-17T21:54:07.376Z,8.37
2018-07-17T21:56:35.741Z,7.80
2018-07-17T21:59:03.825Z,8.00
2018-07-17T22:01:31.942Z,8.83
2018-07-17T22:04:00.391Z,9.77
2018-07-17T22:06:28.728Z,9.73
2018-07-17T22:08:57.084Z,7.83
2018-07-17T22:11:25.457Z,9.10
2018-07-17T22:13:53.815Z,9.43
2018-07-17T22:16:22.142Z,8.73
2018-07-17T22:18:50.495Z,8.77
2018-07-17T22:21:18.839Z,9.03
2018-07-17T22:23:47.182Z,9.90
2018-07-17T22:26:15.511Z,10.40
2018-07-17T22:28:43.853Z,9.83
2018-07-17T22:31:11.918Z,11.03
2018-07-17T22:33:40.276Z,11.10
2018-07-17T22:36:08.650Z,10.13
2018-07-17T22:38:37.085Z,12.23
2018-07-17T22:41:05.163Z,10.23
2018-07-17T22:43:33.535Z,11.67
2018-07-17T22:46:01.604Z,9.47
2018-07-17T22:48:29.703Z,9.40
2018-07-17T22:50:58.068Z,11.73
2018-07-17T22:53:26.424Z,11.00
2018-07-17T22:55:54.784Z,13.83
2018-07-17T22:58:23.152Z,13.43
2018-07-17T23:00:51.503Z,12.07
2018-07-17T23:03:19.862Z,10.13
2018-07-17T23:05:48.196Z,12.93
2018-07-17T23:08:16.590Z,15.03
2018-07-17T23:10:44.920Z,12.60
2018-07-17T23:13:13.256Z,15.10
2018-07-17T23:15:41.628Z,13.27
2018-07-17T23:18:09.964Z,12.33
2018-07-17T23:20:38.323Z,16.50
2018-07-17T23:23:06.705Z,14.17
2018-07-17T23:25:35.071Z,13.63
2018-07-17T23:28:03.142Z,12.93
2018-07-17T23:30:31.240Z,13.53
2018-07-17T23:32:59.585Z,16.17
2018-07-17T23:35:27.695Z,15.37
2018-07-17T23:37:56.036Z,14.70
2018-07-17T23:40:24.392Z,15.43
2018-07-17T23:42:52.760Z,16.07
2018-07-17T23:45:21.147Z,16.13
2018-07-17T23:47:49.680Z,17.70
2018-07-17T23:50:18.089Z,15.03
2018-07-17T23:52:46.435Z,17.40
2018-07-17T23:55:14.856Z,15.47
2018-07-17T23:57:43.232Z,15.07
